Haig, Nebraska
Current Conditions -  °F | °C
As of 3:53 PM on Thursday 20 Nov 2014 (Local Time) from KBFF Reporting Station
Clear Clear  
Wind Chill: 46°   Ceiling: Unl
Heat Index: 48°   Visibility: 10mi
Dew Point: 17°   Wind: 5mph
Humidity: 29%   Direction: 130°SE
Pressure: 29.92"   Gusts: NA
Location:  41.9575°N, 103.765°W
Report Text: KBFF 202253Z AUTO 13004KT 10SM CLR 09/M08 A2992 RMK AO2 SLP154 T00891083
Loading
Personal Weather Stations






























Interactive Weather Map New forecast layout! Learn more

10-Day Weather Forecast

Advertisements
Track Severe Weather on mobile